Current Conditions
Clear
Conditions



Pressure
30.14 (inHG) - 1020.62 (mb)
Visibility

10.0 (miles) - 16.1 (km)
Temperature
68  °F
Temperature
50  °F
Dewpoint
53  %
 Humidity
Wind Speed
9  mph
8  kts
14  km/h
4.0  m/s
Wind Direction
N
45°
E
90°
135°
S
180°
225°
W
270°
315°
 340°

North North
West
Airport Data
MMLP
Manuel Márquez de León International Airport
Metar :MMLP 041740Z 34008KT 10SM SKC 20/10 A3014 RMK SLP205 52007 951 ISOL CI
Sat 4th February 10:40 am
Raw Metar Info
Raw METAR is the most common format in the world for the transmission of observational weather data. It is highly standardized through the International Civil Aviation Organization (ICAO), which allows it to be understood throughout most of the world.
API Info
Data Provided by
https://www.checkwx.com/weather/MMLP

Aviation Weather providing METAR, TAF, AIRMET, SIGMET and OUTLOOK Weather Reports
© Info
CSS/SVG/PHP scripts were developed by weather34.com for use in the weather34 template © 2015-2023

Guide Info provided by Metar-Wikipedia